Rice, Minnesota
Current Conditions -  °F | °C
As of 7:38 AM on Sunday 21 Dec 2014 (Local Time) from KLXL Reporting Station
Haze Haze  
Wind Chill: 25°   Ceiling: 400
Heat Index: 32°   Visibility: 3mi
Dew Point: 30°   Wind: 8mph
Humidity: 93%   Direction: 160°SSE
Pressure: 29.84"   Gusts: NA
Location:  45.75°N, 94.22°W
Report Text: KLXL 211338Z AUTO 16007KT 3SM BR OVC004 00/M01 A2984 RMK AO2
Loading
Personal Weather Stations






























Interactive Weather Map New forecast layout! Learn more

10-Day Weather Forecast

Advertisements
Track Severe Weather on mobile